createdAt,value
2023-04-16T00:00:05.304Z,40.75
2023-04-16T00:02:52.924Z,40.90
2023-04-16T00:09:26.911Z,50.78
2023-04-16T00:12:30.474Z,45.17
2023-04-16T00:15:23.818Z,45.38
2023-04-16T00:18:11.185Z,47.45
2023-04-16T00:21:00.442Z,45.47
2023-04-16T00:23:47.755Z,52.35
2023-04-16T00:26:35.290Z,47.10
2023-04-16T00:33:23.036Z,51.47
2023-04-16T00:36:37.733Z,58.17
2023-04-16T00:41:00.391Z,53.47
2023-04-16T00:42:41.597Z,48.75
2023-04-16T00:45:29.258Z,48.67
2023-04-16T00:48:53.556Z,49.55
2023-04-16T00:51:41.397Z,50.42
2023-04-16T00:54:31.852Z,49.58
2023-04-16T00:57:21.294Z,54.38
2023-04-16T01:00:35.193Z,53.20
2023-04-16T01:03:34.998Z,50.97
2023-04-16T01:10:33.898Z,49.25
2023-04-16T01:13:42.982Z,54.55
2023-04-16T01:16:45.508Z,53.60
2023-04-16T01:19:36.502Z,55.50
2023-04-16T01:22:51.107Z,54.33
2023-04-16T01:25:43.330Z,54.40
2023-04-16T01:28:38.265Z,54.22
2023-04-16T01:32:30.976Z,52.25
2023-04-16T01:35:47.090Z,50.45
2023-04-16T01:38:36.839Z,51.08
2023-04-16T01:41:31.557Z,47.97
2023-04-16T01:44:24.116Z,43.45
2023-04-16T01:47:15.852Z,45.53
2023-04-16T01:50:32.691Z,38.53
2023-04-16T01:53:32.221Z,49.45
2023-04-16T01:56:19.933Z,39.70
2023-04-16T01:59:17.242Z,43.40
2023-04-16T02:02:16.427Z,44.53
2023-04-16T02:05:33.199Z,38.47
2023-04-16T02:09:13.785Z,37.42
2023-04-16T02:12:27.547Z,37.92
2023-04-16T02:18:47.672Z,34.65
2023-04-16T02:23:05.887Z,37.30
2023-04-16T02:34:48.052Z,25.15
2023-04-16T02:37:36.716Z,31.42
2023-04-16T02:40:27.240Z,25.42
2023-04-16T02:44:22.224Z,28.58
2023-04-16T02:47:48.288Z,26.60
2023-04-16T02:50:36.047Z,27.05
2023-04-16T03:05:00.491Z,30.50
2023-04-16T03:11:37.893Z,31.55
2023-04-16T03:14:43.213Z,33.20
2023-04-16T03:17:58.362Z,28.60
2023-04-16T03:25:26.935Z,33.60
2023-04-16T03:29:11.092Z,35.50
2023-04-16T03:35:48.007Z,37.95
2023-04-16T03:38:50.942Z,44.25
2023-04-16T03:46:24.063Z,45.42
2023-04-16T04:01:45.311Z,49.05
2023-04-16T04:04:34.900Z,52.92
2023-04-16T04:15:59.919Z,48.53
2023-04-16T04:18:22.557Z,53.08
2023-04-16T04:25:01.395Z,46.78
2023-04-16T04:28:43.552Z,44.10
2023-04-16T04:31:36.346Z,43.10
2023-04-16T04:34:56.269Z,49.67
2023-04-16T04:41:51.991Z,41.72
2023-04-16T04:48:17.858Z,41.75
2023-04-16T04:51:12.865Z,38.72
2023-04-16T04:54:01.719Z,38.97
2023-04-16T04:57:16.760Z,39.03
2023-04-16T05:00:57.880Z,41.85
2023-04-16T05:07:28.971Z,41.92
2023-04-16T05:15:05.912Z,44.95
2023-04-16T05:21:34.508Z,47.22
2023-04-16T05:24:26.263Z,45.25
2023-04-16T05:35:52.431Z,53.35
2023-04-16T05:39:10.346Z,53.38
2023-04-16T05:42:30.647Z,86.68
2023-04-16T05:45:52.113Z,86.53
2023-04-16T05:48:48.357Z,106.90
2023-04-16T05:51:40.636Z,98.72
2023-04-16T05:54:30.315Z,99.65
2023-04-16T05:57:25.856Z,105.53
2023-04-16T06:00:13.912Z,110.47
2023-04-16T06:03:01.981Z,109.82
2023-04-16T06:06:37.796Z,134.65
2023-04-16T06:09:26.176Z,143.23
2023-04-16T06:12:14.229Z,122.50
2023-04-16T06:15:01.997Z,135.02
2023-04-16T06:17:54.391Z,129.10
2023-04-16T06:20:46.060Z,116.72
2023-04-16T06:23:39.171Z,108.63
2023-04-16T06:26:34.364Z,116.40
2023-04-16T06:29:49.821Z,132.02
2023-04-16T06:39:06.015Z,137.98
2023-04-16T06:42:06.297Z,143.10
2023-04-16T06:51:49.383Z,200.32
2023-04-16T06:54:39.589Z,176.20
2023-04-16T06:57:27.106Z,168.48
2023-04-16T07:00:14.554Z,216.05
2023-04-16T07:03:02.186Z,172.40
2023-04-16T07:05:53.754Z,172.90
2023-04-16T07:08:41.144Z,172.00
2023-04-16T07:11:35.925Z,162.95
2023-04-16T07:14:40.458Z,201.85
2023-04-16T07:18:13.249Z,170.85
2023-04-16T07:21:03.495Z,193.90
2023-04-16T07:27:10.181Z,161.65
2023-04-16T07:29:59.974Z,151.00
2023-04-16T07:32:57.292Z,156.65
2023-04-16T07:35:45.880Z,162.80
2023-04-16T07:38:49.928Z,146.77
2023-04-16T07:42:05.290Z,155.18
2023-04-16T07:45:00.228Z,141.95
2023-04-16T07:48:35.890Z,127.05
2023-04-16T07:55:59.413Z,142.13
2023-04-16T08:02:33.175Z,139.43
2023-04-16T08:12:54.970Z,124.78
2023-04-16T08:15:45.832Z,113.50
2023-04-16T08:18:36.575Z,118.60
2023-04-16T08:21:56.865Z,120.70
2023-04-16T08:24:56.207Z,123.53
2023-04-16T08:27:57.056Z,118.53
2023-04-16T08:30:46.177Z,115.00
2023-04-16T08:33:42.337Z,103.00
2023-04-16T08:36:32.485Z,113.63
2023-04-16T08:39:20.061Z,98.15
2023-04-16T08:42:43.462Z,101.50
2023-04-16T08:49:48.216Z,95.50
2023-04-16T08:53:11.274Z,99.57
2023-04-16T08:56:07.022Z,86.82
2023-04-16T08:59:00.594Z,85.40
2023-04-16T09:01:49.472Z,91.78
2023-04-16T09:04:46.085Z,78.95
2023-04-16T09:11:24.450Z,78.10
2023-04-16T09:14:39.149Z,73.45
2023-04-16T09:22:14.367Z,69.47
2023-04-16T09:25:02.945Z,62.08
2023-04-16T09:27:53.768Z,60.53
2023-04-16T09:30:41.193Z,53.55
2023-04-16T09:33:28.433Z,62.15
2023-04-16T09:36:26.512Z,54.97
2023-04-16T09:39:52.749Z,55.53
2023-04-16T09:46:12.665Z,53.15
2023-04-16T09:52:26.497Z,55.53
2023-04-16T09:59:36.550Z,59.63
2023-04-16T10:02:42.808Z,62.10
2023-04-16T10:09:40.014Z,64.82
2023-04-16T10:12:28.861Z,67.30
2023-04-16T10:15:17.038Z,61.38
2023-04-16T10:21:57.910Z,64.72
2023-04-16T10:25:09.651Z,66.05
2023-04-16T10:27:59.997Z,61.47
2023-04-16T10:31:00.916Z,62.67
2023-04-16T10:33:52.838Z,64.53
2023-04-16T10:36:40.433Z,63.72
2023-04-16T10:39:29.760Z,64.38
2023-04-16T10:42:23.985Z,64.90
2023-04-16T10:45:11.817Z,59.63
2023-04-16T10:48:05.864Z,64.35
2023-04-16T10:50:57.998Z,57.70
2023-04-16T10:53:48.199Z,54.20
2023-04-16T10:56:36.989Z,62.40
2023-04-16T10:59:25.883Z,59.40
2023-04-16T11:02:27.766Z,60.78
2023-04-16T11:05:22.998Z,55.00
2023-04-16T11:11:46.108Z,51.10
2023-04-16T11:14:41.438Z,50.47
2023-04-16T11:17:40.231Z,45.40
2023-04-16T11:20:29.288Z,46.75
2023-04-16T11:23:18.748Z,37.47
2023-04-16T11:26:06.237Z,42.63
2023-04-16T11:28:55.938Z,37.53
2023-04-16T11:31:49.716Z,35.35
2023-04-16T11:47:18.255Z,33.60
2023-04-16T11:55:23.555Z,30.05
2023-04-16T12:06:56.542Z,26.75
2023-04-16T12:10:08.493Z,27.95
2023-04-16T12:43:17.577Z,16.77
2023-04-16T12:46:05.114Z,16.08
2023-04-16T12:48:52.662Z,11.73
2023-04-16T12:51:49.907Z,13.73
2023-04-16T12:55:11.217Z,9.98
2023-04-16T12:58:01.387Z,8.95
2023-04-16T13:00:49.362Z,6.13
2023-04-16T13:03:38.610Z,9.45
2023-04-16T13:07:29.303Z,7.95
2023-04-16T13:10:44.089Z,8.00
2023-04-16T13:17:59.900Z,8.18
2023-04-16T13:20:50.383Z,11.48
2023-04-16T13:23:47.277Z,31.50
2023-04-16T13:26:36.777Z,10.18
2023-04-16T13:29:27.694Z,8.15
2023-04-16T13:32:15.857Z,10.30
2023-04-16T13:35:10.101Z,10.20
2023-04-16T13:38:08.025Z,10.18
2023-04-16T13:41:10.499Z,9.25
2023-04-16T13:44:40.034Z,8.88
2023-04-16T13:47:33.717Z,8.10
2023-04-16T13:50:24.572Z,10.52
2023-04-16T13:53:15.965Z,8.75
2023-04-16T13:56:14.030Z,9.80
2023-04-16T14:09:59.862Z,10.07
2023-04-16T14:12:56.426Z,11.50
2023-04-16T14:15:53.411Z,12.35
2023-04-16T14:18:42.464Z,12.38
2023-04-16T14:21:41.871Z,14.65
2023-04-16T14:24:31.316Z,13.10
2023-04-16T14:27:18.420Z,12.80
2023-04-16T14:30:07.115Z,15.52
2023-04-16T14:32:54.535Z,16.33
2023-04-16T14:35:42.240Z,19.92
2023-04-16T14:38:31.543Z,20.73
2023-04-16T14:41:21.907Z,17.35
2023-04-16T14:44:09.668Z,20.27
2023-04-16T14:46:57.129Z,20.55
2023-04-16T14:49:49.333Z,20.73
2023-04-16T14:52:36.714Z,22.17
2023-04-16T14:55:24.170Z,24.58
2023-04-16T14:58:14.545Z,26.23
2023-04-16T15:01:03.212Z,27.15
2023-04-16T15:03:55.959Z,25.58
2023-04-16T15:06:46.537Z,27.08
2023-04-16T15:09:37.377Z,26.60
2023-04-16T15:12:28.271Z,32.05
2023-04-16T15:15:16.045Z,29.13
2023-04-16T15:18:04.351Z,29.00
2023-04-16T15:20:55.554Z,42.20
2023-04-16T15:23:42.976Z,39.47
2023-04-16T15:26:31.015Z,62.25
2023-04-16T15:29:18.615Z,42.22
2023-04-16T15:32:38.389Z,45.58
2023-04-16T15:36:26.336Z,48.92
2023-04-16T15:39:16.890Z,51.30
2023-04-16T15:42:07.971Z,50.35
2023-04-16T15:45:13.970Z,49.85
2023-04-16T15:55:42.070Z,49.05
2023-04-16T15:58:29.587Z,48.20
2023-04-16T16:04:25.995Z,43.33
2023-04-16T16:07:15.575Z,42.15
2023-04-16T16:10:05.274Z,40.95
2023-04-16T16:12:53.114Z,39.78
2023-04-16T16:15:43.726Z,38.08
2023-04-16T16:18:34.037Z,38.25
2023-04-16T16:21:21.995Z,38.00
2023-04-16T16:24:10.513Z,37.40
2023-04-16T16:27:01.769Z,34.97
2023-04-16T16:29:49.518Z,39.95
2023-04-16T16:33:06.545Z,36.33
2023-04-16T16:36:02.445Z,36.05
2023-04-16T16:38:52.218Z,41.00
2023-04-16T16:41:57.335Z,50.40
2023-04-16T16:44:49.703Z,55.78
2023-04-16T16:47:37.109Z,53.25
2023-04-16T16:50:37.581Z,60.65
2023-04-16T16:53:28.236Z,58.35
2023-04-16T16:56:17.730Z,62.78
2023-04-16T16:59:10.395Z,68.78
2023-04-16T17:01:58.680Z,73.57
2023-04-16T17:04:49.244Z,75.47
2023-04-16T17:07:36.467Z,84.18
2023-04-16T17:10:24.193Z,78.22
2023-04-16T17:13:13.645Z,82.97
2023-04-16T17:16:01.644Z,79.38
2023-04-16T17:18:52.414Z,88.50
2023-04-16T17:21:58.517Z,91.32
2023-04-16T17:24:50.338Z,95.70
2023-04-16T17:28:11.526Z,99.73
2023-04-16T17:30:59.576Z,107.20
2023-04-16T17:33:46.885Z,105.03
2023-04-16T17:36:41.125Z,110.57
2023-04-16T17:43:03.791Z,126.32
2023-04-16T17:46:12.113Z,142.20
2023-04-16T17:49:06.178Z,131.40
2023-04-16T17:52:02.187Z,139.48
2023-04-16T17:54:50.763Z,135.15
2023-04-16T17:57:38.708Z,144.25
2023-04-16T18:00:28.692Z,140.68
2023-04-16T18:03:21.407Z,149.52
2023-04-16T18:06:12.104Z,156.15
2023-04-16T18:09:01.999Z,153.35
2023-04-16T18:11:49.501Z,151.73
2023-04-16T18:14:41.067Z,188.98
2023-04-16T18:17:28.683Z,170.50
2023-04-16T18:20:19.377Z,165.30
2023-04-16T18:23:07.064Z,163.10
2023-04-16T18:25:54.591Z,145.50
2023-04-16T18:28:44.510Z,153.13
2023-04-16T18:31:33.198Z,146.00
2023-04-16T18:34:22.869Z,159.02
2023-04-16T18:37:11.045Z,144.48
2023-04-16T18:39:58.397Z,148.52
2023-04-16T18:42:49.005Z,160.90
2023-04-16T18:45:36.580Z,150.77
2023-04-16T18:48:24.163Z,146.73
2023-04-16T18:51:21.275Z,145.48
2023-04-16T18:57:56.530Z,148.00
2023-04-16T19:01:11.474Z,137.45
2023-04-16T19:03:59.043Z,142.52
2023-04-16T19:06:48.393Z,141.32
2023-04-16T19:09:42.088Z,145.52
2023-04-16T19:12:32.986Z,143.82
2023-04-16T19:15:31.636Z,142.10
2023-04-16T19:18:24.401Z,129.25
2023-04-16T19:24:35.272Z,146.80
2023-04-16T19:27:35.653Z,129.15
2023-04-16T19:30:44.003Z,132.35
2023-04-16T19:33:59.369Z,125.90
2023-04-16T19:36:53.934Z,135.20
2023-04-16T19:39:47.051Z,131.15
2023-04-16T19:43:01.682Z,129.48
2023-04-16T19:45:57.570Z,131.95
2023-04-16T19:48:48.178Z,132.45
2023-04-16T19:51:35.491Z,123.15
2023-04-16T19:54:24.230Z,128.20
2023-04-16T19:57:11.886Z,136.65
2023-04-16T19:59:59.341Z,130.98
2023-04-16T20:02:48.677Z,130.07
2023-04-16T20:05:50.262Z,125.22
2023-04-16T20:08:38.227Z,135.23
2023-04-16T20:11:28.237Z,133.70
2023-04-16T20:14:18.431Z,134.10
2023-04-16T20:17:10.235Z,122.35
2023-04-16T20:20:01.201Z,132.38
2023-04-16T20:23:03.497Z,138.43
2023-04-16T20:28:58.462Z,135.55
2023-04-16T20:31:46.447Z,134.98
2023-04-16T20:34:33.808Z,122.80
2023-04-16T20:37:29.873Z,123.47
2023-04-16T20:40:17.268Z,129.80
2023-04-16T20:43:10.430Z,121.47
2023-04-16T20:45:57.890Z,130.27
2023-04-16T20:48:47.261Z,130.15
2023-04-16T20:51:38.529Z,123.43
2023-04-16T20:54:52.120Z,131.73
2023-04-16T21:01:07.488Z,124.38
2023-04-16T21:04:07.125Z,120.00
2023-04-16T21:07:00.108Z,109.60
2023-04-16T21:09:59.589Z,126.97
2023-04-16T21:15:48.290Z,120.82
2023-04-16T21:19:10.608Z,125.47
2023-04-16T21:22:05.557Z,138.77
2023-04-16T21:25:25.565Z,118.20
2023-04-16T21:28:03.098Z,113.32
2023-04-16T21:30:53.579Z,119.28
2023-04-16T21:33:40.808Z,126.20
2023-04-16T21:36:29.267Z,129.25
2023-04-16T21:39:17.803Z,120.65
2023-04-16T21:42:05.082Z,115.80
2023-04-16T21:44:52.516Z,120.10
2023-04-16T21:47:47.724Z,103.03
2023-04-16T21:50:36.108Z,105.30
2023-04-16T21:53:23.330Z,97.32
2023-04-16T21:56:10.577Z,100.13
2023-04-16T21:58:57.857Z,89.30
2023-04-16T22:01:48.067Z,91.78
2023-04-16T22:04:38.785Z,82.97
2023-04-16T22:07:28.141Z,77.97
2023-04-16T22:10:15.468Z,89.65
2023-04-16T22:13:05.896Z,84.53
2023-04-16T22:15:54.099Z,85.03
2023-04-16T22:18:53.311Z,92.88
2023-04-16T22:21:40.782Z,104.25
2023-04-16T22:24:53.707Z,110.00
2023-04-16T22:27:41.057Z,109.85
2023-04-16T22:30:39.617Z,100.50
2023-04-16T22:33:30.747Z,114.95
2023-04-16T22:36:17.998Z,109.90
2023-04-16T22:39:08.759Z,130.07
2023-04-16T22:41:56.605Z,125.82
2023-04-16T22:44:46.477Z,127.32
2023-04-16T22:47:39.741Z,132.77
2023-04-16T22:50:27.558Z,133.15
2023-04-16T22:53:15.118Z,132.70
2023-04-16T22:56:04.932Z,132.18
2023-04-16T22:58:55.223Z,130.82
2023-04-16T23:01:45.825Z,136.15
2023-04-16T23:04:33.366Z,135.60
2023-04-16T23:07:28.037Z,163.63
2023-04-16T23:10:27.019Z,136.18
2023-04-16T23:13:14.309Z,122.50
2023-04-16T23:16:08.029Z,125.13
2023-04-16T23:18:57.690Z,126.75
2023-04-16T23:21:53.838Z,128.60
2023-04-16T23:24:54.700Z,120.78
2023-04-16T23:27:47.952Z,137.93
2023-04-16T23:30:35.205Z,132.05
2023-04-16T23:33:23.757Z,134.45
2023-04-16T23:36:11.335Z,137.10
2023-04-16T23:38:58.659Z,145.15
2023-04-16T23:41:48.782Z,131.98
2023-04-16T23:44:39.142Z,130.48
2023-04-16T23:47:41.373Z,119.18
2023-04-16T23:50:36.518Z,131.00
2023-04-16T23:53:23.909Z,124.25
2023-04-16T23:59:12.761Z,123.15
